sensor_id;sensor_type;location;lat;lon;timestamp;P1;durP1;ratioP1;P2;durP2;ratioP2
77876;SDS011;67251;50.844;7.978;2023-02-15T00:01:51;20.20;;;8.38;;
77876;SDS011;67251;50.844;7.978;2023-02-15T00:04:18;15.57;;;6.85;;
77876;SDS011;67251;50.844;7.978;2023-02-15T00:06:45;23.33;;;8.95;;
77876;SDS011;67251;50.844;7.978;2023-02-15T00:09:11;19.38;;;8.68;;
77876;SDS011;67251;50.844;7.978;2023-02-15T00:11:37;20.83;;;8.63;;
77876;SDS011;67251;50.844;7.978;2023-02-15T00:14:40;23.63;;;8.80;;
77876;SDS011;67251;50.844;7.978;2023-02-15T00:16:59;19.15;;;8.98;;
77876;SDS011;67251;50.844;7.978;2023-02-15T00:19:24;21.45;;;8.40;;
77876;SDS011;67251;50.844;7.978;2023-02-15T00:21:50;19.10;;;7.97;;
77876;SDS011;67251;50.844;7.978;2023-02-15T00:24:17;24.05;;;9.18;;
77876;SDS011;67251;50.844;7.978;2023-02-15T00:26:43;19.52;;;8.35;;
77876;SDS011;67251;50.844;7.978;2023-02-15T00:29:10;19.73;;;8.07;;
77876;SDS011;67251;50.844;7.978;2023-02-15T00:31:37;16.80;;;7.15;;
77876;SDS011;67251;50.844;7.978;2023-02-15T00:34:07;18.92;;;7.60;;
77876;SDS011;67251;50.844;7.978;2023-02-15T00:36:37;17.42;;;7.65;;
77876;SDS011;67251;50.844;7.978;2023-02-15T00:39:03;15.30;;;6.53;;
77876;SDS011;67251;50.844;7.978;2023-02-15T00:41:29;21.88;;;7.97;;
77876;SDS011;67251;50.844;7.978;2023-02-15T00:43:55;19.40;;;7.18;;
77876;SDS011;67251;50.844;7.978;2023-02-15T00:46:21;17.05;;;6.85;;
77876;SDS011;67251;50.844;7.978;2023-02-15T00:48:46;18.88;;;6.75;;
77876;SDS011;67251;50.844;7.978;2023-02-15T00:51:12;20.10;;;6.88;;
77876;SDS011;67251;50.844;7.978;2023-02-15T00:53:37;17.27;;;6.95;;
77876;SDS011;67251;50.844;7.978;2023-02-15T00:56:02;21.98;;;7.30;;
77876;SDS011;67251;50.844;7.978;2023-02-15T00:58:28;19.23;;;7.32;;
77876;SDS011;67251;50.844;7.978;2023-02-15T01:00:53;19.33;;;7.57;;
77876;SDS011;67251;50.844;7.978;2023-02-15T01:03:19;17.52;;;6.30;;
77876;SDS011;67251;50.844;7.978;2023-02-15T01:05:46;15.90;;;6.65;;
77876;SDS011;67251;50.844;7.978;2023-02-15T01:08:13;17.85;;;5.97;;
77876;SDS011;67251;50.844;7.978;2023-02-15T01:10:38;20.20;;;8.18;;
77876;SDS011;67251;50.844;7.978;2023-02-15T01:13:05;13.02;;;5.68;;
77876;SDS011;67251;50.844;7.978;2023-02-15T01:15:30;18.48;;;7.38;;
77876;SDS011;67251;50.844;7.978;2023-02-15T01:17:56;15.73;;;7.00;;
77876;SDS011;67251;50.844;7.978;2023-02-15T01:20:26;19.10;;;6.80;;
77876;SDS011;67251;50.844;7.978;2023-02-15T01:22:52;16.75;;;6.63;;
77876;SDS011;67251;50.844;7.978;2023-02-15T01:25:19;16.90;;;6.10;;
77876;SDS011;67251;50.844;7.978;2023-02-15T01:27:46;16.60;;;6.40;;
77876;SDS011;67251;50.844;7.978;2023-02-15T01:30:12;16.90;;;5.82;;
77876;SDS011;67251;50.844;7.978;2023-02-15T01:32:38;16.35;;;6.60;;
77876;SDS011;67251;50.844;7.978;2023-02-15T01:35:04;17.27;;;6.72;;
77876;SDS011;67251;50.844;7.978;2023-02-15T01:37:30;18.27;;;7.32;;
77876;SDS011;67251;50.844;7.978;2023-02-15T01:39:56;16.80;;;6.57;;
77876;SDS011;67251;50.844;7.978;2023-02-15T01:42:23;17.83;;;6.75;;
77876;SDS011;67251;50.844;7.978;2023-02-15T01:44:53;20.27;;;7.30;;
77876;SDS011;67251;50.844;7.978;2023-02-15T01:47:29;18.83;;;6.78;;
77876;SDS011;67251;50.844;7.978;2023-02-15T01:50:08;18.38;;;8.05;;
77876;SDS011;67251;50.844;7.978;2023-02-15T01:55:45;18.23;;;6.82;;
77876;SDS011;67251;50.844;7.978;2023-02-15T01:58:15;19.27;;;7.05;;
77876;SDS011;67251;50.844;7.978;2023-02-15T02:00:41;18.48;;;6.85;;
77876;SDS011;67251;50.844;7.978;2023-02-15T02:03:07;13.70;;;5.65;;
77876;SDS011;67251;50.844;7.978;2023-02-15T02:05:32;17.77;;;7.10;;
77876;SDS011;67251;50.844;7.978;2023-02-15T02:07:58;19.67;;;8.35;;
77876;SDS011;67251;50.844;7.978;2023-02-15T02:10:26;19.10;;;7.43;;
77876;SDS011;67251;50.844;7.978;2023-02-15T02:12:52;16.58;;;8.13;;
77876;SDS011;67251;50.844;7.978;2023-02-15T02:15:24;15.40;;;6.90;;
77876;SDS011;67251;50.844;7.978;2023-02-15T02:18:03;20.40;;;8.02;;
77876;SDS011;67251;50.844;7.978;2023-02-15T02:23:47;14.77;;;5.95;;
77876;SDS011;67251;50.844;7.978;2023-02-15T02:32:08;15.13;;;6.10;;
77876;SDS011;67251;50.844;7.978;2023-02-15T02:34:53;13.80;;;5.38;;
77876;SDS011;67251;50.844;7.978;2023-02-15T02:40:19;15.07;;;5.35;;
77876;SDS011;67251;50.844;7.978;2023-02-15T02:43:01;14.93;;;5.65;;
77876;SDS011;67251;50.844;7.978;2023-02-15T02:45:57;17.88;;;7.22;;
77876;SDS011;67251;50.844;7.978;2023-02-15T02:48:30;20.65;;;6.82;;
77876;SDS011;67251;50.844;7.978;2023-02-15T02:50:58;16.48;;;6.97;;
77876;SDS011;67251;50.844;7.978;2023-02-15T02:53:24;16.02;;;6.15;;
77876;SDS011;67251;50.844;7.978;2023-02-15T02:55:54;11.63;;;4.57;;
77876;SDS011;67251;50.844;7.978;2023-02-15T03:00:57;20.48;;;8.27;;
77876;SDS011;67251;50.844;7.978;2023-02-15T03:03:32;15.75;;;6.00;;
77876;SDS011;67251;50.844;7.978;2023-02-15T03:06:03;9.35;;;3.70;;
77876;SDS011;67251;50.844;7.978;2023-02-15T03:08:35;15.55;;;6.28;;
77876;SDS011;67251;50.844;7.978;2023-02-15T03:11:03;12.00;;;4.90;;
77876;SDS011;67251;50.844;7.978;2023-02-15T03:13:29;20.02;;;6.05;;
77876;SDS011;67251;50.844;7.978;2023-02-15T03:15:56;15.95;;;6.65;;
77876;SDS011;67251;50.844;7.978;2023-02-15T03:18:45;20.17;;;7.13;;
77876;SDS011;67251;50.844;7.978;2023-02-15T03:21:17;14.90;;;6.20;;
77876;SDS011;67251;50.844;7.978;2023-02-15T03:23:52;14.02;;;5.78;;
77876;SDS011;67251;50.844;7.978;2023-02-15T03:26:23;14.48;;;5.70;;
77876;SDS011;67251;50.844;7.978;2023-02-15T03:28:52;15.52;;;6.00;;
77876;SDS011;67251;50.844;7.978;2023-02-15T03:31:20;18.95;;;7.20;;
77876;SDS011;67251;50.844;7.978;2023-02-15T03:33:56;17.25;;;6.22;;
77876;SDS011;67251;50.844;7.978;2023-02-15T03:39:07;15.65;;;6.30;;
77876;SDS011;67251;50.844;7.978;2023-02-15T03:41:46;10.18;;;4.53;;
77876;SDS011;67251;50.844;7.978;2023-02-15T03:44:31;15.13;;;5.88;;
77876;SDS011;67251;50.844;7.978;2023-02-15T03:47:05;14.32;;;5.05;;
77876;SDS011;67251;50.844;7.978;2023-02-15T03:49:40;16.10;;;5.65;;
77876;SDS011;67251;50.844;7.978;2023-02-15T03:52:10;15.40;;;6.05;;
77876;SDS011;67251;50.844;7.978;2023-02-15T03:54:37;15.18;;;6.07;;
77876;SDS011;67251;50.844;7.978;2023-02-15T04:00:09;18.13;;;6.05;;
77876;SDS011;67251;50.844;7.978;2023-02-15T04:05:42;15.57;;;6.22;;
77876;SDS011;67251;50.844;7.978;2023-02-15T04:08:09;17.58;;;6.32;;
77876;SDS011;67251;50.844;7.978;2023-02-15T04:10:35;13.93;;;5.45;;
77876;SDS011;67251;50.844;7.978;2023-02-15T04:13:20;13.65;;;5.72;;
77876;SDS011;67251;50.844;7.978;2023-02-15T04:15:54;10.82;;;4.82;;
77876;SDS011;67251;50.844;7.978;2023-02-15T04:18:32;13.23;;;4.28;;
77876;SDS011;67251;50.844;7.978;2023-02-15T04:21:18;16.95;;;5.13;;
77876;SDS011;67251;50.844;7.978;2023-02-15T04:24:04;16.05;;;5.85;;
77876;SDS011;67251;50.844;7.978;2023-02-15T04:26:48;13.93;;;5.82;;
77876;SDS011;67251;50.844;7.978;2023-02-15T04:29:17;18.05;;;6.35;;
77876;SDS011;67251;50.844;7.978;2023-02-15T04:31:43;22.00;;;6.90;;
77876;SDS011;67251;50.844;7.978;2023-02-15T04:34:09;15.77;;;5.82;;
77876;SDS011;67251;50.844;7.978;2023-02-15T04:36:35;20.08;;;6.95;;
77876;SDS011;67251;50.844;7.978;2023-02-15T04:39:01;17.63;;;7.18;;
77876;SDS011;67251;50.844;7.978;2023-02-15T04:41:27;14.15;;;5.22;;
77876;SDS011;67251;50.844;7.978;2023-02-15T04:43:52;14.38;;;6.20;;
77876;SDS011;67251;50.844;7.978;2023-02-15T04:46:18;18.33;;;5.25;;
77876;SDS011;67251;50.844;7.978;2023-02-15T04:48:43;16.75;;;5.40;;
77876;SDS011;67251;50.844;7.978;2023-02-15T04:51:08;15.85;;;5.82;;
77876;SDS011;67251;50.844;7.978;2023-02-15T04:53:34;16.58;;;6.20;;
77876;SDS011;67251;50.844;7.978;2023-02-15T04:56:00;15.63;;;5.70;;
77876;SDS011;67251;50.844;7.978;2023-02-15T04:58:26;16.10;;;5.72;;
77876;SDS011;67251;50.844;7.978;2023-02-15T05:00:54;23.90;;;8.40;;
77876;SDS011;67251;50.844;7.978;2023-02-15T05:03:20;18.05;;;5.18;;
77876;SDS011;67251;50.844;7.978;2023-02-15T05:05:46;16.73;;;6.15;;
77876;SDS011;67251;50.844;7.978;2023-02-15T05:08:11;14.65;;;5.78;;
77876;SDS011;67251;50.844;7.978;2023-02-15T05:10:36;10.73;;;4.35;;
77876;SDS011;67251;50.844;7.978;2023-02-15T05:13:02;10.30;;;4.72;;
77876;SDS011;67251;50.844;7.978;2023-02-15T05:15:27;14.63;;;5.10;;
77876;SDS011;67251;50.844;7.978;2023-02-15T05:17:52;18.13;;;6.95;;
77876;SDS011;67251;50.844;7.978;2023-02-15T05:20:18;26.45;;;9.20;;
77876;SDS011;67251;50.844;7.978;2023-02-15T05:22:43;58.42;;;17.42;;
77876;SDS011;67251;50.844;7.978;2023-02-15T05:25:09;45.70;;;14.35;;
77876;SDS011;67251;50.844;7.978;2023-02-15T05:27:53;41.22;;;13.43;;
77876;SDS011;67251;50.844;7.978;2023-02-15T05:30:37;36.70;;;12.10;;
77876;SDS011;67251;50.844;7.978;2023-02-15T05:33:04;30.02;;;9.75;;
77876;SDS011;67251;50.844;7.978;2023-02-15T05:35:33;19.50;;;7.32;;
77876;SDS011;67251;50.844;7.978;2023-02-15T05:37:59;13.98;;;6.38;;
77876;SDS011;67251;50.844;7.978;2023-02-15T05:40:25;16.25;;;4.75;;
77876;SDS011;67251;50.844;7.978;2023-02-15T05:42:50;16.95;;;5.72;;
77876;SDS011;67251;50.844;7.978;2023-02-15T05:45:16;14.98;;;5.13;;
77876;SDS011;67251;50.844;7.978;2023-02-15T05:47:41;13.52;;;4.78;;
77876;SDS011;67251;50.844;7.978;2023-02-15T05:50:09;17.55;;;5.97;;
77876;SDS011;67251;50.844;7.978;2023-02-15T05:52:36;12.52;;;4.63;;
77876;SDS011;67251;50.844;7.978;2023-02-15T05:55:01;14.85;;;5.38;;
77876;SDS011;67251;50.844;7.978;2023-02-15T05:57:27;13.82;;;4.95;;
77876;SDS011;67251;50.844;7.978;2023-02-15T05:59:53;12.55;;;4.68;;
77876;SDS011;67251;50.844;7.978;2023-02-15T06:02:18;12.80;;;4.88;;
77876;SDS011;67251;50.844;7.978;2023-02-15T06:04:44;13.98;;;5.18;;
77876;SDS011;67251;50.844;7.978;2023-02-15T06:07:09;13.88;;;5.60;;
77876;SDS011;67251;50.844;7.978;2023-02-15T06:09:34;22.95;;;7.28;;
77876;SDS011;67251;50.844;7.978;2023-02-15T06:12:00;22.88;;;6.93;;
77876;SDS011;67251;50.844;7.978;2023-02-15T06:14:25;22.00;;;8.15;;
77876;SDS011;67251;50.844;7.978;2023-02-15T06:16:51;20.42;;;7.70;;
77876;SDS011;67251;50.844;7.978;2023-02-15T06:19:16;14.82;;;4.93;;
77876;SDS011;67251;50.844;7.978;2023-02-15T06:21:41;18.75;;;7.88;;
77876;SDS011;67251;50.844;7.978;2023-02-15T06:24:10;17.48;;;6.43;;
77876;SDS011;67251;50.844;7.978;2023-02-15T06:26:36;15.23;;;6.00;;
77876;SDS011;67251;50.844;7.978;2023-02-15T06:29:01;19.48;;;7.72;;
77876;SDS011;67251;50.844;7.978;2023-02-15T06:31:27;17.00;;;6.72;;
77876;SDS011;67251;50.844;7.978;2023-02-15T06:33:52;17.02;;;6.13;;
77876;SDS011;67251;50.844;7.978;2023-02-15T06:36:25;12.05;;;5.28;;
77876;SDS011;67251;50.844;7.978;2023-02-15T06:38:51;12.40;;;5.35;;
77876;SDS011;67251;50.844;7.978;2023-02-15T06:41:17;18.42;;;5.35;;
77876;SDS011;67251;50.844;7.978;2023-02-15T06:43:42;13.95;;;6.45;;
77876;SDS011;67251;50.844;7.978;2023-02-15T06:46:07;13.20;;;5.25;;
77876;SDS011;67251;50.844;7.978;2023-02-15T06:48:33;16.75;;;6.18;;
77876;SDS011;67251;50.844;7.978;2023-02-15T06:50:58;18.08;;;6.80;;
77876;SDS011;67251;50.844;7.978;2023-02-15T06:53:24;21.35;;;6.00;;
77876;SDS011;67251;50.844;7.978;2023-02-15T06:55:49;20.50;;;7.40;;
77876;SDS011;67251;50.844;7.978;2023-02-15T06:58:14;23.00;;;9.32;;
77876;SDS011;67251;50.844;7.978;2023-02-15T07:00:40;22.38;;;9.02;;
77876;SDS011;67251;50.844;7.978;2023-02-15T07:03:05;19.40;;;7.70;;
77876;SDS011;67251;50.844;7.978;2023-02-15T07:05:32;31.25;;;9.70;;
77876;SDS011;67251;50.844;7.978;2023-02-15T07:07:59;24.45;;;8.52;;
77876;SDS011;67251;50.844;7.978;2023-02-15T07:10:25;21.55;;;8.65;;
77876;SDS011;67251;50.844;7.978;2023-02-15T07:12:51;21.08;;;8.80;;
77876;SDS011;67251;50.844;7.978;2023-02-15T07:15:17;23.17;;;8.25;;
77876;SDS011;67251;50.844;7.978;2023-02-15T07:17:45;26.90;;;9.10;;
77876;SDS011;67251;50.844;7.978;2023-02-15T07:20:13;25.27;;;9.07;;
77876;SDS011;67251;50.844;7.978;2023-02-15T07:22:41;17.48;;;6.47;;
77876;SDS011;67251;50.844;7.978;2023-02-15T07:25:08;17.00;;;7.25;;
77876;SDS011;67251;50.844;7.978;2023-02-15T07:27:34;15.27;;;6.97;;
77876;SDS011;67251;50.844;7.978;2023-02-15T07:30:00;15.65;;;6.22;;
77876;SDS011;67251;50.844;7.978;2023-02-15T07:32:29;13.45;;;5.63;;
77876;SDS011;67251;50.844;7.978;2023-02-15T07:34:55;18.45;;;6.97;;
77876;SDS011;67251;50.844;7.978;2023-02-15T07:37:21;15.50;;;6.78;;
77876;SDS011;67251;50.844;7.978;2023-02-15T07:39:46;17.00;;;6.20;;
77876;SDS011;67251;50.844;7.978;2023-02-15T07:42:12;19.08;;;8.45;;
77876;SDS011;67251;50.844;7.978;2023-02-15T07:44:37;23.13;;;8.23;;
77876;SDS011;67251;50.844;7.978;2023-02-15T07:47:03;19.50;;;7.93;;
77876;SDS011;67251;50.844;7.978;2023-02-15T07:49:28;15.45;;;6.70;;
77876;SDS011;67251;50.844;7.978;2023-02-15T07:51:53;22.13;;;7.28;;
77876;SDS011;67251;50.844;7.978;2023-02-15T07:54:19;22.90;;;8.70;;
77876;SDS011;67251;50.844;7.978;2023-02-15T07:56:44;16.63;;;6.90;;
77876;SDS011;67251;50.844;7.978;2023-02-15T07:59:10;19.35;;;8.27;;
77876;SDS011;67251;50.844;7.978;2023-02-15T08:01:36;23.45;;;8.05;;
77876;SDS011;67251;50.844;7.978;2023-02-15T08:04:03;20.40;;;8.80;;
77876;SDS011;67251;50.844;7.978;2023-02-15T08:06:31;23.60;;;8.52;;
77876;SDS011;67251;50.844;7.978;2023-02-15T08:08:58;18.98;;;7.68;;
77876;SDS011;67251;50.844;7.978;2023-02-15T08:11:28;12.30;;;5.90;;
77876;SDS011;67251;50.844;7.978;2023-02-15T08:16:52;18.35;;;7.50;;
77876;SDS011;67251;50.844;7.978;2023-02-15T08:19:27;17.98;;;7.50;;
77876;SDS011;67251;50.844;7.978;2023-02-15T08:24:27;18.10;;;8.30;;
77876;SDS011;67251;50.844;7.978;2023-02-15T08:26:54;19.67;;;7.32;;
77876;SDS011;67251;50.844;7.978;2023-02-15T08:29:21;17.25;;;7.90;;
77876;SDS011;67251;50.844;7.978;2023-02-15T08:31:48;21.05;;;8.88;;
77876;SDS011;67251;50.844;7.978;2023-02-15T08:34:16;15.18;;;7.60;;
77876;SDS011;67251;50.844;7.978;2023-02-15T08:36:43;17.75;;;8.20;;
77876;SDS011;67251;50.844;7.978;2023-02-15T08:39:10;14.73;;;8.10;;
77876;SDS011;67251;50.844;7.978;2023-02-15T08:41:37;15.63;;;7.55;;
77876;SDS011;67251;50.844;7.978;2023-02-15T08:44:05;15.65;;;7.38;;
77876;SDS011;67251;50.844;7.978;2023-02-15T08:46:33;16.52;;;7.85;;
77876;SDS011;67251;50.844;7.978;2023-02-15T08:49:00;15.60;;;8.15;;
77876;SDS011;67251;50.844;7.978;2023-02-15T08:51:27;16.67;;;8.07;;
77876;SDS011;67251;50.844;7.978;2023-02-15T08:53:55;19.80;;;8.25;;
77876;SDS011;67251;50.844;7.978;2023-02-15T08:56:25;14.43;;;7.47;;
77876;SDS011;67251;50.844;7.978;2023-02-15T08:58:52;14.50;;;7.10;;
77876;SDS011;67251;50.844;7.978;2023-02-15T09:01:19;16.00;;;7.28;;
77876;SDS011;67251;50.844;7.978;2023-02-15T09:03:47;14.05;;;7.28;;
77876;SDS011;67251;50.844;7.978;2023-02-15T09:06:14;15.02;;;7.65;;
77876;SDS011;67251;50.844;7.978;2023-02-15T09:08:41;14.75;;;7.72;;
77876;SDS011;67251;50.844;7.978;2023-02-15T09:11:07;15.90;;;7.55;;
77876;SDS011;67251;50.844;7.978;2023-02-15T09:13:38;15.75;;;7.13;;
77876;SDS011;67251;50.844;7.978;2023-02-15T09:16:08;14.18;;;7.25;;
77876;SDS011;67251;50.844;7.978;2023-02-15T09:18:35;20.98;;;9.38;;
77876;SDS011;67251;50.844;7.978;2023-02-15T09:21:06;11.82;;;5.97;;
77876;SDS011;67251;50.844;7.978;2023-02-15T09:23:33;14.75;;;6.40;;
77876;SDS011;67251;50.844;7.978;2023-02-15T09:26:03;11.40;;;5.80;;
77876;SDS011;67251;50.844;7.978;2023-02-15T09:28:29;10.43;;;5.35;;
77876;SDS011;67251;50.844;7.978;2023-02-15T09:30:55;12.85;;;6.03;;
77876;SDS011;67251;50.844;7.978;2023-02-15T09:33:21;9.60;;;5.30;;
77876;SDS011;67251;50.844;7.978;2023-02-15T09:35:47;11.68;;;6.15;;
77876;SDS011;67251;50.844;7.978;2023-02-15T09:38:12;10.00;;;5.40;;
77876;SDS011;67251;50.844;7.978;2023-02-15T09:40:49;10.95;;;5.60;;
77876;SDS011;67251;50.844;7.978;2023-02-15T09:46:51;12.63;;;5.75;;
77876;SDS011;67251;50.844;7.978;2023-02-15T09:52:06;10.25;;;4.90;;
77876;SDS011;67251;50.844;7.978;2023-02-15T09:54:52;9.05;;;5.00;;
77876;SDS011;67251;50.844;7.978;2023-02-15T10:03:00;8.65;;;4.50;;
77876;SDS011;67251;50.844;7.978;2023-02-15T10:31:18;8.25;;;4.20;;
77876;SDS011;67251;50.844;7.978;2023-02-15T10:33:46;12.10;;;5.15;;
77876;SDS011;67251;50.844;7.978;2023-02-15T10:55:18;7.97;;;4.20;;
77876;SDS011;67251;50.844;7.978;2023-02-15T10:58:21;7.80;;;3.80;;
77876;SDS011;67251;50.844;7.978;2023-02-15T11:00:57;8.15;;;3.88;;
77876;SDS011;67251;50.844;7.978;2023-02-15T11:06:04;7.07;;;3.45;;
77876;SDS011;67251;50.844;7.978;2023-02-15T11:08:59;8.52;;;4.15;;
77876;SDS011;67251;50.844;7.978;2023-02-15T11:11:35;7.90;;;3.85;;
77876;SDS011;67251;50.844;7.978;2023-02-15T11:14:09;9.40;;;3.97;;
77876;SDS011;67251;50.844;7.978;2023-02-15T11:16:39;7.25;;;3.65;;
77876;SDS011;67251;50.844;7.978;2023-02-15T11:21:42;7.10;;;3.10;;
77876;SDS011;67251;50.844;7.978;2023-02-15T11:24:11;7.63;;;3.85;;
77876;SDS011;67251;50.844;7.978;2023-02-15T11:26:43;7.65;;;3.50;;
77876;SDS011;67251;50.844;7.978;2023-02-15T11:29:17;7.10;;;3.67;;
77876;SDS011;67251;50.844;7.978;2023-02-15T11:31:49;8.15;;;3.67;;
77876;SDS011;67251;50.844;7.978;2023-02-15T11:34:35;7.90;;;4.05;;
77876;SDS011;67251;50.844;7.978;2023-02-15T11:37:17;8.40;;;3.78;;
77876;SDS011;67251;50.844;7.978;2023-02-15T11:39:47;6.55;;;3.45;;
77876;SDS011;67251;50.844;7.978;2023-02-15T11:47:22;7.53;;;3.42;;
77876;SDS011;67251;50.844;7.978;2023-02-15T11:49:47;8.73;;;3.72;;
77876;SDS011;67251;50.844;7.978;2023-02-15T11:52:14;6.30;;;3.30;;
77876;SDS011;67251;50.844;7.978;2023-02-15T11:54:43;8.48;;;3.85;;
77876;SDS011;67251;50.844;7.978;2023-02-15T11:57:12;10.05;;;4.00;;
77876;SDS011;67251;50.844;7.978;2023-02-15T11:59:44;7.28;;;3.53;;
77876;SDS011;67251;50.844;7.978;2023-02-15T12:02:17;7.25;;;3.45;;
77876;SDS011;67251;50.844;7.978;2023-02-15T12:04:52;7.65;;;3.80;;
77876;SDS011;67251;50.844;7.978;2023-02-15T12:10:02;8.57;;;3.78;;
77876;SDS011;67251;50.844;7.978;2023-02-15T12:12:43;9.50;;;4.25;;
77876;SDS011;67251;50.844;7.978;2023-02-15T12:15:12;11.55;;;4.72;;
77876;SDS011;67251;50.844;7.978;2023-02-15T12:17:48;8.90;;;4.20;;
77876;SDS011;67251;50.844;7.978;2023-02-15T12:22:46;9.82;;;4.70;;
77876;SDS011;67251;50.844;7.978;2023-02-15T12:28:05;9.38;;;4.50;;
77876;SDS011;67251;50.844;7.978;2023-02-15T12:30:47;8.98;;;4.25;;
77876;SDS011;67251;50.844;7.978;2023-02-15T12:35:55;8.63;;;4.43;;
77876;SDS011;67251;50.844;7.978;2023-02-15T12:38:25;10.60;;;4.28;;
77876;SDS011;67251;50.844;7.978;2023-02-15T12:40:58;9.93;;;4.43;;
77876;SDS011;67251;50.844;7.978;2023-02-15T12:43:36;8.25;;;3.70;;
77876;SDS011;67251;50.844;7.978;2023-02-15T12:49:06;8.63;;;4.60;;
77876;SDS011;67251;50.844;7.978;2023-02-15T12:51:42;10.13;;;4.70;;
77876;SDS011;67251;50.844;7.978;2023-02-15T12:59:59;9.93;;;4.03;;
77876;SDS011;67251;50.844;7.978;2023-02-15T13:02:53;8.27;;;3.80;;
77876;SDS011;67251;50.844;7.978;2023-02-15T13:13:19;10.02;;;4.50;;
77876;SDS011;67251;50.844;7.978;2023-02-15T13:15:48;9.27;;;4.13;;
77876;SDS011;67251;50.844;7.978;2023-02-15T13:18:19;8.55;;;3.80;;
77876;SDS011;67251;50.844;7.978;2023-02-15T13:20:54;8.65;;;3.88;;
77876;SDS011;67251;50.844;7.978;2023-02-15T13:23:22;9.45;;;4.18;;
77876;SDS011;67251;50.844;7.978;2023-02-15T13:25:52;9.07;;;4.18;;
77876;SDS011;67251;50.844;7.978;2023-02-15T13:28:22;10.88;;;4.82;;
77876;SDS011;67251;50.844;7.978;2023-02-15T13:30:50;10.55;;;4.53;;
77876;SDS011;67251;50.844;7.978;2023-02-15T13:33:25;10.65;;;4.45;;
77876;SDS011;67251;50.844;7.978;2023-02-15T13:36:01;8.10;;;3.58;;
77876;SDS011;67251;50.844;7.978;2023-02-15T13:41:18;8.95;;;3.63;;
77876;SDS011;67251;50.844;7.978;2023-02-15T13:46:45;9.30;;;3.83;;
77876;SDS011;67251;50.844;7.978;2023-02-15T13:51:58;11.00;;;4.70;;
77876;SDS011;67251;50.844;7.978;2023-02-15T14:20:15;9.27;;;4.13;;
77876;SDS011;67251;50.844;7.978;2023-02-15T14:22:54;10.82;;;4.70;;
77876;SDS011;67251;50.844;7.978;2023-02-15T14:25:25;8.05;;;3.95;;
77876;SDS011;67251;50.844;7.978;2023-02-15T14:31:06;10.02;;;4.40;;
77876;SDS011;67251;50.844;7.978;2023-02-15T14:33:40;9.55;;;4.07;;
77876;SDS011;67251;50.844;7.978;2023-02-15T14:36:12;9.30;;;4.35;;
77876;SDS011;67251;50.844;7.978;2023-02-15T14:38:56;11.82;;;4.13;;
77876;SDS011;67251;50.844;7.978;2023-02-15T14:42:01;8.82;;;4.40;;
77876;SDS011;67251;50.844;7.978;2023-02-15T14:44:37;9.63;;;3.83;;
77876;SDS011;67251;50.844;7.978;2023-02-15T14:47:15;9.38;;;4.05;;
77876;SDS011;67251;50.844;7.978;2023-02-15T14:49:47;11.15;;;4.43;;
77876;SDS011;67251;50.844;7.978;2023-02-15T14:52:12;8.93;;;4.57;;
77876;SDS011;67251;50.844;7.978;2023-02-15T15:02:25;10.15;;;5.30;;
77876;SDS011;67251;50.844;7.978;2023-02-15T15:07:46;10.63;;;4.70;;
77876;SDS011;67251;50.844;7.978;2023-02-15T15:15:46;10.82;;;4.70;;
77876;SDS011;67251;50.844;7.978;2023-02-15T15:21:10;11.60;;;4.63;;
77876;SDS011;67251;50.844;7.978;2023-02-15T15:50:17;11.60;;;4.63;;
77876;SDS011;67251;50.844;7.978;2023-02-15T15:52:53;13.82;;;5.85;;
77876;SDS011;67251;50.844;7.978;2023-02-15T15:55:23;12.68;;;6.50;;
77876;SDS011;67251;50.844;7.978;2023-02-15T15:57:55;12.65;;;5.38;;
77876;SDS011;67251;50.844;7.978;2023-02-15T16:02:55;14.43;;;6.68;;
77876;SDS011;67251;50.844;7.978;2023-02-15T16:05:21;12.00;;;6.93;;
77876;SDS011;67251;50.844;7.978;2023-02-15T16:07:47;12.27;;;5.53;;
77876;SDS011;67251;50.844;7.978;2023-02-15T16:12:45;16.58;;;6.35;;
77876;SDS011;67251;50.844;7.978;2023-02-15T16:15:14;13.82;;;5.90;;
77876;SDS011;67251;50.844;7.978;2023-02-15T16:17:43;14.48;;;5.78;;
77876;SDS011;67251;50.844;7.978;2023-02-15T16:22:41;15.23;;;6.28;;
77876;SDS011;67251;50.844;7.978;2023-02-15T16:25:13;12.30;;;5.50;;
77876;SDS011;67251;50.844;7.978;2023-02-15T16:27:48;13.70;;;6.10;;
77876;SDS011;67251;50.844;7.978;2023-02-15T16:35:55;14.48;;;5.88;;
77876;SDS011;67251;50.844;7.978;2023-02-15T16:38:30;12.85;;;5.40;;
77876;SDS011;67251;50.844;7.978;2023-02-15T16:41:24;14.10;;;6.35;;
77876;SDS011;67251;50.844;7.978;2023-02-15T16:43:52;15.90;;;6.93;;
77876;SDS011;67251;50.844;7.978;2023-02-15T16:46:25;13.82;;;6.70;;
77876;SDS011;67251;50.844;7.978;2023-02-15T16:48:53;19.00;;;8.95;;
77876;SDS011;67251;50.844;7.978;2023-02-15T16:51:24;16.73;;;7.25;;
77876;SDS011;67251;50.844;7.978;2023-02-15T16:53:52;16.85;;;6.82;;
77876;SDS011;67251;50.844;7.978;2023-02-15T16:56:23;15.00;;;6.22;;
77876;SDS011;67251;50.844;7.978;2023-02-15T16:58:51;16.85;;;6.85;;
77876;SDS011;67251;50.844;7.978;2023-02-15T17:01:20;14.95;;;5.85;;
77876;SDS011;67251;50.844;7.978;2023-02-15T17:03:49;15.57;;;6.88;;
77876;SDS011;67251;50.844;7.978;2023-02-15T17:06:20;14.30;;;5.93;;
77876;SDS011;67251;50.844;7.978;2023-02-15T17:08:47;12.80;;;6.47;;
77876;SDS011;67251;50.844;7.978;2023-02-15T17:16:32;17.65;;;6.85;;
77876;SDS011;67251;50.844;7.978;2023-02-15T17:19:09;17.90;;;6.65;;
77876;SDS011;67251;50.844;7.978;2023-02-15T17:21:41;16.90;;;6.90;;
77876;SDS011;67251;50.844;7.978;2023-02-15T17:27:06;15.18;;;7.25;;
77876;SDS011;67251;50.844;7.978;2023-02-15T17:29:56;15.10;;;7.15;;
77876;SDS011;67251;50.844;7.978;2023-02-15T17:32:24;14.45;;;7.20;;
77876;SDS011;67251;50.844;7.978;2023-02-15T17:34:59;22.00;;;7.75;;
77876;SDS011;67251;50.844;7.978;2023-02-15T17:37:54;16.73;;;6.90;;
77876;SDS011;67251;50.844;7.978;2023-02-15T17:40:28;16.48;;;7.63;;
77876;SDS011;67251;50.844;7.978;2023-02-15T17:42:57;14.20;;;5.57;;
77876;SDS011;67251;50.844;7.978;2023-02-15T17:45:24;18.45;;;7.28;;
77876;SDS011;67251;50.844;7.978;2023-02-15T17:47:56;15.13;;;5.30;;
77876;SDS011;67251;50.844;7.978;2023-02-15T17:50:25;21.23;;;8.00;;
77876;SDS011;67251;50.844;7.978;2023-02-15T17:52:52;17.20;;;7.55;;
77876;SDS011;67251;50.844;7.978;2023-02-15T17:55:21;17.10;;;7.57;;
77876;SDS011;67251;50.844;7.978;2023-02-15T17:58:00;18.40;;;7.90;;
77876;SDS011;67251;50.844;7.978;2023-02-15T18:00:27;21.30;;;8.30;;
77876;SDS011;67251;50.844;7.978;2023-02-15T18:03:13;18.40;;;8.60;;
77876;SDS011;67251;50.844;7.978;2023-02-15T18:05:57;22.48;;;7.97;;
77876;SDS011;67251;50.844;7.978;2023-02-15T18:08:41;17.50;;;7.30;;
77876;SDS011;67251;50.844;7.978;2023-02-15T18:11:25;16.55;;;7.18;;
77876;SDS011;67251;50.844;7.978;2023-02-15T18:14:09;22.13;;;8.13;;
77876;SDS011;67251;50.844;7.978;2023-02-15T18:16:36;13.10;;;5.60;;
77876;SDS011;67251;50.844;7.978;2023-02-15T18:19:05;18.38;;;8.43;;
77876;SDS011;67251;50.844;7.978;2023-02-15T18:21:35;23.00;;;9.98;;
77876;SDS011;67251;50.844;7.978;2023-02-15T18:24:01;19.88;;;9.75;;
77876;SDS011;67251;50.844;7.978;2023-02-15T18:26:26;18.88;;;7.85;;
77876;SDS011;67251;50.844;7.978;2023-02-15T18:28:52;20.98;;;8.70;;
77876;SDS011;67251;50.844;7.978;2023-02-15T18:31:18;19.38;;;8.02;;
77876;SDS011;67251;50.844;7.978;2023-02-15T18:34:03;17.05;;;8.02;;
77876;SDS011;67251;50.844;7.978;2023-02-15T18:36:31;18.77;;;7.90;;
77876;SDS011;67251;50.844;7.978;2023-02-15T18:39:01;18.73;;;7.88;;
77876;SDS011;67251;50.844;7.978;2023-02-15T18:41:27;23.58;;;9.60;;
77876;SDS011;67251;50.844;7.978;2023-02-15T18:43:53;21.30;;;9.52;;